sensor_id;sensor_type;location;lat;lon;timestamp;P1;durP1;ratioP1;P2;durP2;ratioP2
59109;SDS011;44895;47.438;18.978;2022-07-06T00:02:30;6.10;;;3.88;;
59109;SDS011;44895;47.438;18.978;2022-07-06T00:05:33;6.95;;;3.70;;
59109;SDS011;44895;47.438;18.978;2022-07-06T00:08:37;6.10;;;3.42;;
59109;SDS011;44895;47.438;18.978;2022-07-06T00:11:41;5.97;;;2.58;;
59109;SDS011;44895;47.438;18.978;2022-07-06T00:14:45;6.80;;;3.67;;
59109;SDS011;44895;47.438;18.978;2022-07-06T00:17:49;7.72;;;4.68;;
59109;SDS011;44895;47.438;18.978;2022-07-06T00:20:52;6.13;;;3.20;;
59109;SDS011;44895;47.438;18.978;2022-07-06T00:23:56;6.78;;;4.00;;
59109;SDS011;44895;47.438;18.978;2022-07-06T00:27:00;6.32;;;3.75;;
59109;SDS011;44895;47.438;18.978;2022-07-06T00:30:04;5.72;;;3.58;;
59109;SDS011;44895;47.438;18.978;2022-07-06T00:33:08;7.18;;;3.78;;
59109;SDS011;44895;47.438;18.978;2022-07-06T00:36:12;7.95;;;3.75;;
59109;SDS011;44895;47.438;18.978;2022-07-06T00:39:16;6.63;;;3.20;;
59109;SDS011;44895;47.438;18.978;2022-07-06T00:42:22;6.63;;;3.67;;
59109;SDS011;44895;47.438;18.978;2022-07-06T00:45:25;6.32;;;3.90;;
59109;SDS011;44895;47.438;18.978;2022-07-06T00:48:30;6.85;;;3.95;;
59109;SDS011;44895;47.438;18.978;2022-07-06T00:51:34;6.90;;;4.38;;
59109;SDS011;44895;47.438;18.978;2022-07-06T00:54:40;9.40;;;4.30;;
59109;SDS011;44895;47.438;18.978;2022-07-06T00:57:46;6.68;;;4.53;;
59109;SDS011;44895;47.438;18.978;2022-07-06T01:00:51;6.72;;;3.67;;
59109;SDS011;44895;47.438;18.978;2022-07-06T01:03:55;8.68;;;4.43;;
59109;SDS011;44895;47.438;18.978;2022-07-06T01:06:58;8.43;;;4.20;;
59109;SDS011;44895;47.438;18.978;2022-07-06T01:10:03;7.93;;;3.58;;
59109;SDS011;44895;47.438;18.978;2022-07-06T01:13:08;9.60;;;3.92;;
59109;SDS011;44895;47.438;18.978;2022-07-06T01:16:12;6.72;;;3.53;;
59109;SDS011;44895;47.438;18.978;2022-07-06T01:19:16;6.80;;;3.85;;
59109;SDS011;44895;47.438;18.978;2022-07-06T01:22:20;6.93;;;3.67;;
59109;SDS011;44895;47.438;18.978;2022-07-06T01:25:24;7.55;;;3.90;;
59109;SDS011;44895;47.438;18.978;2022-07-06T01:28:27;5.95;;;3.03;;
59109;SDS011;44895;47.438;18.978;2022-07-06T01:31:31;6.03;;;3.50;;
59109;SDS011;44895;47.438;18.978;2022-07-06T01:34:35;6.90;;;2.97;;
59109;SDS011;44895;47.438;18.978;2022-07-06T01:37:41;6.45;;;3.67;;
59109;SDS011;44895;47.438;18.978;2022-07-06T01:40:45;7.35;;;3.65;;
59109;SDS011;44895;47.438;18.978;2022-07-06T01:43:50;7.05;;;4.45;;
59109;SDS011;44895;47.438;18.978;2022-07-06T01:46:55;6.55;;;4.13;;
59109;SDS011;44895;47.438;18.978;2022-07-06T01:49:59;6.45;;;3.55;;
59109;SDS011;44895;47.438;18.978;2022-07-06T01:56:10;7.55;;;3.85;;
59109;SDS011;44895;47.438;18.978;2022-07-06T01:59:14;6.07;;;3.58;;
59109;SDS011;44895;47.438;18.978;2022-07-06T02:02:17;5.68;;;3.25;;
59109;SDS011;44895;47.438;18.978;2022-07-06T02:05:21;8.68;;;4.15;;
59109;SDS011;44895;47.438;18.978;2022-07-06T02:08:26;7.70;;;4.38;;
59109;SDS011;44895;47.438;18.978;2022-07-06T02:11:32;6.68;;;3.85;;
59109;SDS011;44895;47.438;18.978;2022-07-06T02:14:36;10.75;;;4.28;;
59109;SDS011;44895;47.438;18.978;2022-07-06T02:17:39;9.73;;;4.45;;
59109;SDS011;44895;47.438;18.978;2022-07-06T02:20:43;7.13;;;4.50;;
59109;SDS011;44895;47.438;18.978;2022-07-06T02:23:47;6.90;;;4.45;;
59109;SDS011;44895;47.438;18.978;2022-07-06T02:26:52;12.40;;;5.50;;
59109;SDS011;44895;47.438;18.978;2022-07-06T02:29:56;9.85;;;5.65;;
59109;SDS011;44895;47.438;18.978;2022-07-06T02:32:59;8.45;;;5.20;;
59109;SDS011;44895;47.438;18.978;2022-07-06T02:36:04;7.43;;;4.85;;
59109;SDS011;44895;47.438;18.978;2022-07-06T02:39:08;8.70;;;4.78;;
59109;SDS011;44895;47.438;18.978;2022-07-06T02:42:12;10.25;;;5.07;;
59109;SDS011;44895;47.438;18.978;2022-07-06T02:45:16;7.30;;;4.70;;
59109;SDS011;44895;47.438;18.978;2022-07-06T02:48:19;9.80;;;4.70;;
59109;SDS011;44895;47.438;18.978;2022-07-06T02:51:26;7.72;;;5.03;;
59109;SDS011;44895;47.438;18.978;2022-07-06T02:54:30;7.65;;;4.93;;
59109;SDS011;44895;47.438;18.978;2022-07-06T02:57:34;11.52;;;5.50;;
59109;SDS011;44895;47.438;18.978;2022-07-06T03:00:38;8.63;;;5.60;;
59109;SDS011;44895;47.438;18.978;2022-07-06T03:03:43;7.78;;;4.93;;
59109;SDS011;44895;47.438;18.978;2022-07-06T03:06:47;8.65;;;4.70;;
59109;SDS011;44895;47.438;18.978;2022-07-06T03:09:51;7.40;;;4.63;;
59109;SDS011;44895;47.438;18.978;2022-07-06T03:12:57;9.52;;;6.00;;
59109;SDS011;44895;47.438;18.978;2022-07-06T03:16:00;7.63;;;5.57;;
59109;SDS011;44895;47.438;18.978;2022-07-06T03:19:05;8.05;;;5.53;;
59109;SDS011;44895;47.438;18.978;2022-07-06T03:22:10;10.88;;;6.50;;
59109;SDS011;44895;47.438;18.978;2022-07-06T03:25:14;7.28;;;5.05;;
59109;SDS011;44895;47.438;18.978;2022-07-06T03:28:18;8.35;;;5.90;;
59109;SDS011;44895;47.438;18.978;2022-07-06T03:31:23;7.75;;;5.10;;
59109;SDS011;44895;47.438;18.978;2022-07-06T03:34:27;7.90;;;5.20;;
59109;SDS011;44895;47.438;18.978;2022-07-06T03:37:31;8.90;;;4.53;;
59109;SDS011;44895;47.438;18.978;2022-07-06T03:40:36;7.28;;;4.53;;
59109;SDS011;44895;47.438;18.978;2022-07-06T03:43:40;9.15;;;4.90;;
59109;SDS011;44895;47.438;18.978;2022-07-06T03:46:44;8.43;;;4.85;;
59109;SDS011;44895;47.438;18.978;2022-07-06T03:49:49;8.48;;;5.47;;
59109;SDS011;44895;47.438;18.978;2022-07-06T03:52:52;7.32;;;4.32;;
59109;SDS011;44895;47.438;18.978;2022-07-06T03:55:56;8.35;;;4.85;;
59109;SDS011;44895;47.438;18.978;2022-07-06T03:59:18;8.40;;;5.18;;
59109;SDS011;44895;47.438;18.978;2022-07-06T04:02:22;10.07;;;4.45;;
59109;SDS011;44895;47.438;18.978;2022-07-06T04:05:27;11.57;;;4.60;;
59109;SDS011;44895;47.438;18.978;2022-07-06T04:08:31;8.02;;;4.75;;
59109;SDS011;44895;47.438;18.978;2022-07-06T04:11:36;7.65;;;4.53;;
59109;SDS011;44895;47.438;18.978;2022-07-06T04:14:41;7.80;;;4.68;;
59109;SDS011;44895;47.438;18.978;2022-07-06T04:17:45;7.50;;;4.00;;
59109;SDS011;44895;47.438;18.978;2022-07-06T04:21:03;7.78;;;4.55;;
59109;SDS011;44895;47.438;18.978;2022-07-06T04:24:11;7.03;;;4.63;;
59109;SDS011;44895;47.438;18.978;2022-07-06T04:27:15;7.95;;;5.15;;
59109;SDS011;44895;47.438;18.978;2022-07-06T04:30:20;6.82;;;4.40;;
59109;SDS011;44895;47.438;18.978;2022-07-06T04:33:25;9.15;;;3.67;;
59109;SDS011;44895;47.438;18.978;2022-07-06T04:36:29;11.07;;;4.32;;
59109;SDS011;44895;47.438;18.978;2022-07-06T04:39:33;7.07;;;4.28;;
59109;SDS011;44895;47.438;18.978;2022-07-06T04:42:37;7.00;;;4.05;;
59109;SDS011;44895;47.438;18.978;2022-07-06T04:45:41;7.05;;;3.88;;
59109;SDS011;44895;47.438;18.978;2022-07-06T04:48:46;8.60;;;4.40;;
59109;SDS011;44895;47.438;18.978;2022-07-06T04:51:56;7.10;;;3.85;;
59109;SDS011;44895;47.438;18.978;2022-07-06T04:55:00;5.82;;;3.17;;
59109;SDS011;44895;47.438;18.978;2022-07-06T04:58:04;7.18;;;3.65;;
59109;SDS011;44895;47.438;18.978;2022-07-06T05:01:09;8.27;;;4.65;;
59109;SDS011;44895;47.438;18.978;2022-07-06T05:04:13;9.00;;;4.05;;
59109;SDS011;44895;47.438;18.978;2022-07-06T05:07:17;9.02;;;3.67;;
59109;SDS011;44895;47.438;18.978;2022-07-06T05:10:21;7.28;;;3.60;;
59109;SDS011;44895;47.438;18.978;2022-07-06T05:13:29;6.78;;;3.28;;
59109;SDS011;44895;47.438;18.978;2022-07-06T05:16:33;7.78;;;2.80;;
59109;SDS011;44895;47.438;18.978;2022-07-06T05:19:38;6.53;;;3.47;;
59109;SDS011;44895;47.438;18.978;2022-07-06T05:22:42;5.53;;;3.10;;
59109;SDS011;44895;47.438;18.978;2022-07-06T05:25:45;5.72;;;2.65;;
59109;SDS011;44895;47.438;18.978;2022-07-06T05:28:49;6.38;;;3.45;;
59109;SDS011;44895;47.438;18.978;2022-07-06T05:31:55;11.00;;;3.40;;
59109;SDS011;44895;47.438;18.978;2022-07-06T05:34:59;5.35;;;2.65;;
59109;SDS011;44895;47.438;18.978;2022-07-06T05:38:03;5.50;;;3.03;;
59109;SDS011;44895;47.438;18.978;2022-07-06T05:41:08;5.95;;;3.13;;
59109;SDS011;44895;47.438;18.978;2022-07-06T05:44:12;10.68;;;3.55;;
59109;SDS011;44895;47.438;18.978;2022-07-06T05:47:16;5.18;;;2.67;;
59109;SDS011;44895;47.438;18.978;2022-07-06T05:50:38;4.65;;;2.35;;
59109;SDS011;44895;47.438;18.978;2022-07-06T05:53:43;5.10;;;2.33;;
59109;SDS011;44895;47.438;18.978;2022-07-06T05:56:47;4.63;;;2.40;;
59109;SDS011;44895;47.438;18.978;2022-07-06T05:59:51;7.80;;;3.00;;
59109;SDS011;44895;47.438;18.978;2022-07-06T06:02:56;5.53;;;3.05;;
59109;SDS011;44895;47.438;18.978;2022-07-06T06:06:02;5.72;;;2.63;;
59109;SDS011;44895;47.438;18.978;2022-07-06T06:09:06;4.82;;;2.55;;
59109;SDS011;44895;47.438;18.978;2022-07-06T06:12:10;6.32;;;2.67;;
59109;SDS011;44895;47.438;18.978;2022-07-06T06:15:14;5.75;;;3.08;;
59109;SDS011;44895;47.438;18.978;2022-07-06T06:18:18;15.02;;;4.00;;
59109;SDS011;44895;47.438;18.978;2022-07-06T06:21:22;6.10;;;2.47;;
59109;SDS011;44895;47.438;18.978;2022-07-06T06:24:26;7.57;;;2.80;;
59109;SDS011;44895;47.438;18.978;2022-07-06T06:27:31;5.47;;;2.85;;
59109;SDS011;44895;47.438;18.978;2022-07-06T06:30:35;5.75;;;3.03;;
59109;SDS011;44895;47.438;18.978;2022-07-06T06:33:40;5.55;;;2.42;;
59109;SDS011;44895;47.438;18.978;2022-07-06T06:36:44;7.18;;;3.05;;
59109;SDS011;44895;47.438;18.978;2022-07-06T06:39:47;6.38;;;2.85;;
59109;SDS011;44895;47.438;18.978;2022-07-06T06:42:51;4.72;;;2.67;;
59109;SDS011;44895;47.438;18.978;2022-07-06T06:45:55;5.40;;;3.00;;
59109;SDS011;44895;47.438;18.978;2022-07-06T06:48:59;5.75;;;2.75;;
59109;SDS011;44895;47.438;18.978;2022-07-06T06:52:03;6.20;;;2.72;;
59109;SDS011;44895;47.438;18.978;2022-07-06T06:55:07;5.50;;;3.03;;
59109;SDS011;44895;47.438;18.978;2022-07-06T06:58:11;5.63;;;2.92;;
59109;SDS011;44895;47.438;18.978;2022-07-06T07:01:14;5.72;;;2.67;;
59109;SDS011;44895;47.438;18.978;2022-07-06T07:04:18;8.63;;;3.38;;
59109;SDS011;44895;47.438;18.978;2022-07-06T07:07:22;4.75;;;2.53;;
59109;SDS011;44895;47.438;18.978;2022-07-06T07:10:26;6.20;;;2.83;;
59109;SDS011;44895;47.438;18.978;2022-07-06T07:13:30;11.65;;;3.05;;
59109;SDS011;44895;47.438;18.978;2022-07-06T07:16:34;6.25;;;2.90;;
59109;SDS011;44895;47.438;18.978;2022-07-06T07:19:37;5.50;;;2.88;;
59109;SDS011;44895;47.438;18.978;2022-07-06T07:22:42;5.22;;;2.63;;
59109;SDS011;44895;47.438;18.978;2022-07-06T07:25:46;5.72;;;2.05;;
59109;SDS011;44895;47.438;18.978;2022-07-06T07:28:49;5.60;;;2.70;;
59109;SDS011;44895;47.438;18.978;2022-07-06T07:31:53;4.13;;;2.08;;
59109;SDS011;44895;47.438;18.978;2022-07-06T07:34:57;7.95;;;2.88;;
59109;SDS011;44895;47.438;18.978;2022-07-06T07:38:01;4.43;;;2.42;;
59109;SDS011;44895;47.438;18.978;2022-07-06T07:41:04;7.20;;;2.70;;
59109;SDS011;44895;47.438;18.978;2022-07-06T07:44:09;4.65;;;2.17;;
59109;SDS011;44895;47.438;18.978;2022-07-06T07:47:12;5.35;;;2.03;;
59109;SDS011;44895;47.438;18.978;2022-07-06T07:50:16;6.10;;;2.17;;
59109;SDS011;44895;47.438;18.978;2022-07-06T07:53:21;4.47;;;2.17;;
59109;SDS011;44895;47.438;18.978;2022-07-06T07:56:25;4.13;;;2.15;;
59109;SDS011;44895;47.438;18.978;2022-07-06T07:59:28;5.47;;;2.30;;
59109;SDS011;44895;47.438;18.978;2022-07-06T08:02:33;4.85;;;2.45;;
59109;SDS011;44895;47.438;18.978;2022-07-06T08:05:37;5.15;;;2.30;;
59109;SDS011;44895;47.438;18.978;2022-07-06T08:08:40;5.68;;;2.38;;
59109;SDS011;44895;47.438;18.978;2022-07-06T08:11:44;4.82;;;2.42;;
59109;SDS011;44895;47.438;18.978;2022-07-06T08:14:48;3.58;;;1.90;;
59109;SDS011;44895;47.438;18.978;2022-07-06T08:17:52;5.07;;;2.50;;
59109;SDS011;44895;47.438;18.978;2022-07-06T08:20:56;4.55;;;2.20;;
59109;SDS011;44895;47.438;18.978;2022-07-06T08:24:00;8.30;;;2.47;;
59109;SDS011;44895;47.438;18.978;2022-07-06T08:27:05;5.38;;;2.65;;
59109;SDS011;44895;47.438;18.978;2022-07-06T08:30:09;6.13;;;2.72;;
59109;SDS011;44895;47.438;18.978;2022-07-06T08:33:14;6.78;;;2.85;;
59109;SDS011;44895;47.438;18.978;2022-07-06T08:36:17;4.70;;;2.35;;
59109;SDS011;44895;47.438;18.978;2022-07-06T08:39:20;6.00;;;2.50;;
59109;SDS011;44895;47.438;18.978;2022-07-06T08:42:32;6.28;;;2.35;;
59109;SDS011;44895;47.438;18.978;2022-07-06T08:45:37;5.57;;;2.60;;
59109;SDS011;44895;47.438;18.978;2022-07-06T08:48:43;6.00;;;2.87;;
59109;SDS011;44895;47.438;18.978;2022-07-06T08:51:48;4.35;;;1.88;;
59109;SDS011;44895;47.438;18.978;2022-07-06T08:54:52;6.22;;;2.58;;
59109;SDS011;44895;47.438;18.978;2022-07-06T08:57:57;7.53;;;2.83;;
59109;SDS011;44895;47.438;18.978;2022-07-06T09:01:00;4.93;;;2.50;;
59109;SDS011;44895;47.438;18.978;2022-07-06T09:04:07;5.53;;;2.70;;
59109;SDS011;44895;47.438;18.978;2022-07-06T09:07:12;5.47;;;3.00;;
59109;SDS011;44895;47.438;18.978;2022-07-06T09:10:17;6.10;;;2.70;;
59109;SDS011;44895;47.438;18.978;2022-07-06T09:13:22;8.13;;;3.28;;
59109;SDS011;44895;47.438;18.978;2022-07-06T09:16:26;6.03;;;2.83;;
59109;SDS011;44895;47.438;18.978;2022-07-06T09:19:32;5.00;;;2.50;;
59109;SDS011;44895;47.438;18.978;2022-07-06T09:22:37;5.80;;;2.55;;
59109;SDS011;44895;47.438;18.978;2022-07-06T09:25:41;5.78;;;2.85;;
59109;SDS011;44895;47.438;18.978;2022-07-06T09:28:46;5.20;;;2.25;;
59109;SDS011;44895;47.438;18.978;2022-07-06T09:31:59;5.60;;;2.78;;
59109;SDS011;44895;47.438;18.978;2022-07-06T09:35:04;6.25;;;3.42;;
59109;SDS011;44895;47.438;18.978;2022-07-06T09:38:14;5.20;;;2.60;;
59109;SDS011;44895;47.438;18.978;2022-07-06T09:41:29;5.43;;;2.47;;
59109;SDS011;44895;47.438;18.978;2022-07-06T09:44:37;5.47;;;2.30;;
59109;SDS011;44895;47.438;18.978;2022-07-06T09:47:46;10.48;;;3.03;;
59109;SDS011;44895;47.438;18.978;2022-07-06T09:50:52;4.88;;;2.35;;
59109;SDS011;44895;47.438;18.978;2022-07-06T09:53:58;5.07;;;2.05;;
59109;SDS011;44895;47.438;18.978;2022-07-06T09:57:03;4.53;;;2.35;;
59109;SDS011;44895;47.438;18.978;2022-07-06T10:00:07;4.93;;;2.22;;
59109;SDS011;44895;47.438;18.978;2022-07-06T10:03:15;4.82;;;2.28;;
59109;SDS011;44895;47.438;18.978;2022-07-06T10:06:20;7.80;;;2.80;;
59109;SDS011;44895;47.438;18.978;2022-07-06T10:09:25;7.53;;;2.60;;
59109;SDS011;44895;47.438;18.978;2022-07-06T10:12:32;10.00;;;2.40;;
59109;SDS011;44895;47.438;18.978;2022-07-06T10:15:37;6.32;;;2.75;;
59109;SDS011;44895;47.438;18.978;2022-07-06T10:18:42;7.80;;;2.58;;
59109;SDS011;44895;47.438;18.978;2022-07-06T10:21:46;7.15;;;2.90;;
59109;SDS011;44895;47.438;18.978;2022-07-06T10:24:51;5.78;;;2.97;;
59109;SDS011;44895;47.438;18.978;2022-07-06T10:27:55;7.15;;;2.53;;
59109;SDS011;44895;47.438;18.978;2022-07-06T10:30:59;4.50;;;2.25;;
59109;SDS011;44895;47.438;18.978;2022-07-06T10:34:04;16.95;;;3.75;;
59109;SDS011;44895;47.438;18.978;2022-07-06T10:37:20;4.95;;;2.63;;
59109;SDS011;44895;47.438;18.978;2022-07-06T10:40:31;4.97;;;2.50;;
59109;SDS011;44895;47.438;18.978;2022-07-06T10:43:54;5.97;;;2.83;;
